createdAt,value
2019-01-19T00:00:59.342Z,95375.42
2019-01-19T00:04:15.683Z,95380.78
2019-01-19T00:07:37.123Z,95370.14
2019-01-19T00:10:42.005Z,95370.14
2019-01-19T00:13:35.465Z,95369.89
2019-01-19T00:16:18.659Z,95372.85
2019-01-19T00:19:32.675Z,95363.77
2019-01-19T00:22:24.966Z,95365.45
2019-01-19T00:25:22.362Z,95350.08
2019-01-19T00:28:18.009Z,95349.28
2019-01-19T00:31:16.378Z,95349.28
2019-01-19T00:34:08.433Z,95350.86
2019-01-19T00:37:16.092Z,95350.71
2019-01-19T00:40:34.111Z,95351.37
2019-01-19T00:43:23.385Z,95347.50
2019-01-19T00:46:21.512Z,95347.50
2019-01-19T00:49:08.405Z,95345.16
2019-01-19T00:52:03.997Z,95342.09
2019-01-19T00:54:58.251Z,95336.48
2019-01-19T00:58:34.514Z,95347.34
2019-01-19T01:01:43.803Z,95347.34
2019-01-19T01:04:38.247Z,95343.72
2019-01-19T01:07:43.120Z,95343.72
2019-01-19T01:10:38.187Z,95335.85
2019-01-19T01:13:41.939Z,95333.94
2019-01-19T01:16:25.134Z,95338.58
2019-01-19T01:19:19.738Z,95333.64
2019-01-19T01:22:40.670Z,95333.64
2019-01-19T01:25:49.655Z,95324.20
2019-01-19T01:28:52.430Z,95333.33
2019-01-19T01:31:41.743Z,95333.33
2019-01-19T01:34:40.208Z,95330.22
2019-01-19T01:37:42.630Z,95330.20
2019-01-19T01:40:46.151Z,95327.41
2019-01-19T01:43:19.123Z,95325.86
2019-01-19T01:46:52.563Z,95319.69
2019-01-19T01:49:37.543Z,95317.35
2019-01-19T01:52:49.611Z,95318.16
2019-01-19T01:55:44.135Z,95320.81
2019-01-19T01:58:36.289Z,95314.13
2019-01-19T02:01:13.367Z,95311.89
2019-01-19T02:04:18.119Z,95314.53
2019-01-19T02:07:23.551Z,95314.53
2019-01-19T02:10:18.956Z,95317.96
2019-01-19T02:13:17.247Z,95314.49
2019-01-19T02:16:32.648Z,95308.95
2019-01-19T02:19:47.999Z,95301.67
2019-01-19T02:22:39.163Z,95309.70
2019-01-19T02:25:51.111Z,95308.84
2019-01-19T02:28:28.205Z,95306.89
2019-01-19T02:31:46.516Z,95300.72
2019-01-19T02:34:30.231Z,95303.39
2019-01-19T02:37:31.087Z,95301.45
2019-01-19T02:40:31.511Z,95299.16
2019-01-19T02:43:24.586Z,95300.63
2019-01-19T02:46:49.011Z,95297.95
2019-01-19T02:49:42.470Z,95290.14
2019-01-19T02:52:33.247Z,95291.05
2019-01-19T02:55:43.312Z,95291.05
2019-01-19T02:58:40.283Z,95291.77
2019-01-19T03:02:09.177Z,95289.06
2019-01-19T03:05:08.184Z,95288.89
2019-01-19T03:07:51.813Z,95289.80
2019-01-19T03:10:59.010Z,95286.98
2019-01-19T03:13:58.457Z,95280.98
2019-01-19T03:17:06.114Z,95280.98
2019-01-19T03:20:02.536Z,95280.55
2019-01-19T03:23:07.726Z,95281.08
2019-01-19T03:26:02.241Z,95275.70
2019-01-19T03:28:53.868Z,95274.59
2019-01-19T03:32:15.147Z,95273.11
2019-01-19T03:35:18.182Z,95269.57
2019-01-19T03:38:30.109Z,95271.90
2019-01-19T03:41:22.042Z,95277.13
2019-01-19T03:44:26.956Z,95272.20
2019-01-19T03:47:25.959Z,95272.75
2019-01-19T03:50:30.073Z,95276.17
2019-01-19T03:53:07.174Z,95274.20
2019-01-19T03:56:18.349Z,95282.42
2019-01-19T03:59:11.579Z,95279.23
2019-01-19T04:02:35.872Z,95274.50
2019-01-19T04:05:50.723Z,95280.81
2019-01-19T04:08:59.747Z,95280.86
2019-01-19T04:12:07.673Z,95280.78
2019-01-19T04:15:20.247Z,95269.53
2019-01-19T04:18:05.314Z,95272.91
2019-01-19T04:21:11.292Z,95273.47
2019-01-19T04:23:41.591Z,95266.54
2019-01-19T04:26:29.473Z,95263.32
2019-01-19T04:28:57.656Z,95260.52
2019-01-19T04:31:25.047Z,95266.66
2019-01-19T04:33:52.693Z,95265.72
2019-01-19T04:36:21.735Z,95263.40
2019-01-19T04:38:49.738Z,95266.62
2019-01-19T04:41:17.152Z,95266.62
2019-01-19T04:43:44.571Z,95260.95
2019-01-19T04:46:12.127Z,95268.77
2019-01-19T04:48:40.376Z,95257.30
2019-01-19T04:51:07.806Z,95260.70
2019-01-19T04:53:35.321Z,95264.33
2019-01-19T04:56:02.768Z,95255.31
2019-01-19T04:58:30.259Z,95260.94
2019-01-19T05:00:57.690Z,95260.64
2019-01-19T05:03:25.167Z,95263.56
2019-01-19T05:05:52.686Z,95264.70
2019-01-19T05:08:20.080Z,95262.52
2019-01-19T05:10:47.529Z,95259.36
2019-01-19T05:13:14.944Z,95259.83
2019-01-19T05:15:42.371Z,95257.92
2019-01-19T05:18:09.964Z,95256.00
2019-01-19T05:20:37.435Z,95260.77
2019-01-19T05:23:04.846Z,95259.59
2019-01-19T05:25:32.297Z,95265.31
2019-01-19T05:27:59.767Z,95263.79
2019-01-19T05:30:27.192Z,95257.27
2019-01-19T05:32:54.606Z,95259.73
2019-01-19T05:35:22.183Z,95256.78
2019-01-19T05:37:49.597Z,95256.27
2019-01-19T05:40:17.015Z,95257.51
2019-01-19T05:42:44.529Z,95262.41
2019-01-19T05:45:13.548Z,95261.81
2019-01-19T05:47:41.027Z,95264.35
2019-01-19T05:50:12.060Z,95263.82
2019-01-19T05:52:39.472Z,95263.27
2019-01-19T05:55:07.086Z,95264.22
2019-01-19T05:57:34.513Z,95268.02
2019-01-19T06:00:02.091Z,95270.98
2019-01-19T06:02:29.792Z,95271.76
2019-01-19T06:04:57.239Z,95269.36
2019-01-19T06:07:24.723Z,95269.36
2019-01-19T06:09:52.225Z,95270.05
2019-01-19T06:12:19.737Z,95263.03
2019-01-19T06:14:47.254Z,95273.20
2019-01-19T06:17:14.658Z,95268.81
2019-01-19T06:19:42.371Z,95261.84
2019-01-19T06:22:10.285Z,95263.33
2019-01-19T06:24:37.663Z,95260.87
2019-01-19T06:27:05.111Z,95265.27
2019-01-19T06:29:32.922Z,95268.14
2019-01-19T06:32:00.314Z,95265.81
2019-01-19T06:34:27.719Z,95262.19
2019-01-19T06:36:55.421Z,95268.12
2019-01-19T06:39:23.045Z,95266.81
2019-01-19T06:41:50.464Z,95266.81
2019-01-19T06:44:18.087Z,95275.71
2019-01-19T06:46:45.549Z,95272.98
2019-01-19T06:49:12.992Z,95268.64
2019-01-19T06:51:40.479Z,95273.28
2019-01-19T06:54:08.222Z,95271.56
2019-01-19T06:56:35.724Z,95282.64
2019-01-19T06:59:03.238Z,95276.30
2019-01-19T07:01:30.678Z,95281.63
2019-01-19T07:03:58.116Z,95279.89
2019-01-19T07:06:25.735Z,95283.31
2019-01-19T07:08:53.098Z,95278.76
2019-01-19T07:11:20.592Z,95282.50
2019-01-19T07:13:48.060Z,95283.28
2019-01-19T07:16:15.514Z,95288.91
2019-01-19T07:18:43.060Z,95281.77
2019-01-19T07:21:10.519Z,95284.47
2019-01-19T07:23:37.907Z,95283.56
2019-01-19T07:26:05.780Z,95289.92
2019-01-19T07:28:33.260Z,95285.92
2019-01-19T07:31:00.734Z,95291.41
2019-01-19T07:33:28.204Z,95289.11
2019-01-19T07:35:55.620Z,95287.66
2019-01-19T07:38:23.099Z,95294.81
2019-01-19T07:40:50.665Z,95296.64
2019-01-19T07:43:18.676Z,95293.67
2019-01-19T07:45:46.066Z,95292.19
2019-01-19T07:48:13.730Z,95296.64
2019-01-19T07:50:41.115Z,95295.15
2019-01-19T07:53:08.592Z,95296.34
2019-01-19T07:55:36.029Z,95298.16
2019-01-19T07:58:03.471Z,95302.47
2019-01-19T08:00:32.252Z,95295.15
2019-01-19T08:02:59.652Z,95299.16
2019-01-19T08:05:27.209Z,95295.73
2019-01-19T08:07:54.748Z,95297.55
2019-01-19T08:10:22.256Z,95302.62
2019-01-19T08:12:49.672Z,95308.78
2019-01-19T08:15:19.536Z,95307.73
2019-01-19T08:17:46.975Z,95300.95
2019-01-19T08:20:14.947Z,95302.27
2019-01-19T08:22:42.340Z,95300.24
2019-01-19T08:25:10.086Z,95299.63
2019-01-19T08:27:40.093Z,95304.62
2019-01-19T08:30:11.913Z,95296.34
2019-01-19T08:32:39.347Z,95301.22
2019-01-19T08:35:07.464Z,95291.63
2019-01-19T08:37:34.891Z,95299.96
2019-01-19T08:40:02.318Z,95297.58
2019-01-19T08:42:30.227Z,95296.93
2019-01-19T08:44:57.879Z,95291.08
2019-01-19T08:47:28.323Z,95294.88
2019-01-19T08:49:55.791Z,95292.09
2019-01-19T08:52:23.207Z,95290.39
2019-01-19T08:54:50.690Z,95292.11
2019-01-19T08:57:18.125Z,95294.95
2019-01-19T08:59:45.549Z,95295.43
2019-01-19T09:02:12.958Z,95289.77
2019-01-19T09:04:40.400Z,95291.43
2019-01-19T09:07:07.979Z,95291.03
2019-01-19T09:09:35.427Z,95290.54
2019-01-19T09:12:02.948Z,95292.66
2019-01-19T09:14:30.426Z,95294.79
2019-01-19T09:16:58.254Z,95300.66
2019-01-19T09:19:25.770Z,95288.58
2019-01-19T09:21:53.202Z,95293.98
2019-01-19T09:24:23.958Z,95290.61
2019-01-19T09:26:51.416Z,95296.83
2019-01-19T09:29:18.831Z,95296.66
2019-01-19T09:31:46.348Z,95295.36
2019-01-19T09:34:13.810Z,95294.06
2019-01-19T09:36:41.249Z,95293.91
2019-01-19T09:39:19.253Z,95287.05
2019-01-19T09:41:46.700Z,95293.02
2019-01-19T09:44:14.239Z,95286.67
2019-01-19T09:46:41.949Z,95284.11
2019-01-19T09:49:09.494Z,95277.25
2019-01-19T09:51:36.923Z,95273.75
2019-01-19T09:54:04.724Z,95265.70
2019-01-19T09:56:32.171Z,95265.70
2019-01-19T09:58:59.619Z,95269.08
2019-01-19T10:01:27.114Z,95271.48
2019-01-19T10:03:54.564Z,95266.98
2019-01-19T10:06:22.065Z,95256.14
2019-01-19T10:08:49.565Z,95256.73
2019-01-19T10:11:18.016Z,95245.77
2019-01-19T10:13:45.888Z,95252.00
2019-01-19T10:16:13.464Z,95252.00
2019-01-19T10:18:40.928Z,95246.28
2019-01-19T10:21:08.374Z,95247.05
2019-01-19T10:23:35.871Z,95247.05
2019-01-19T10:26:03.634Z,95233.78
2019-01-19T10:28:31.067Z,95233.78
2019-01-19T10:30:58.532Z,95225.64
2019-01-19T10:33:25.968Z,95230.39
2019-01-19T10:35:53.379Z,95223.03
2019-01-19T10:38:20.922Z,95221.20
2019-01-19T10:40:48.392Z,95213.97
2019-01-19T10:43:15.885Z,95206.89
2019-01-19T10:45:43.404Z,95206.89
2019-01-19T10:48:10.986Z,95205.65
2019-01-19T10:50:38.595Z,95201.94
2019-01-19T10:53:06.183Z,95205.58
2019-01-19T10:55:33.706Z,95201.98
2019-01-19T10:58:01.143Z,95191.95
2019-01-19T11:00:29.858Z,95187.36
2019-01-19T11:03:01.000Z,95186.77
2019-01-19T11:05:29.266Z,95189.32
2019-01-19T11:08:03.567Z,95182.58
2019-01-19T11:10:31.156Z,95183.05
2019-01-19T11:12:58.703Z,95170.14
2019-01-19T11:15:26.188Z,95172.75
2019-01-19T11:17:53.606Z,95172.75
2019-01-19T11:20:25.795Z,95171.59
2019-01-19T11:22:55.960Z,95168.19
2019-01-19T11:25:23.825Z,95163.33
2019-01-19T11:27:51.393Z,95166.58
2019-01-19T11:30:24.108Z,95158.75
2019-01-19T11:32:51.670Z,95154.83
2019-01-19T11:35:19.287Z,95152.06
2019-01-19T11:37:46.812Z,95143.73
2019-01-19T11:40:19.432Z,95144.02
2019-01-19T11:42:47.785Z,95143.92
2019-01-19T11:45:17.487Z,95188.80
2019-01-19T11:47:45.045Z,95130.48
2019-01-19T11:50:13.437Z,95124.45
2019-01-19T11:52:40.852Z,95124.45
2019-01-19T11:55:11.192Z,95124.48
2019-01-19T11:57:38.650Z,95036.33
2019-01-19T12:00:13.518Z,95110.15
2019-01-19T12:02:40.988Z,95110.15
2019-01-19T12:05:08.511Z,95107.78
2019-01-19T12:07:36.113Z,95107.70
2019-01-19T12:10:05.692Z,95106.68
2019-01-19T12:12:33.111Z,95105.15
2019-01-19T12:15:00.530Z,95098.25
2019-01-19T12:17:27.976Z,95089.53
2019-01-19T12:19:55.489Z,95085.58
2019-01-19T12:22:22.921Z,95084.29
2019-01-19T12:24:50.369Z,95077.92
2019-01-19T12:27:17.872Z,95082.70
2019-01-19T12:29:45.309Z,95074.84
2019-01-19T12:32:12.770Z,95074.84
2019-01-19T12:34:40.244Z,95071.94
2019-01-19T12:37:07.652Z,95074.70
2019-01-19T12:39:35.128Z,95069.70
2019-01-19T12:42:02.662Z,95071.84
2019-01-19T12:44:30.119Z,95067.13
2019-01-19T12:46:57.611Z,95061.43
2019-01-19T12:49:25.123Z,95047.73
2019-01-19T12:51:52.554Z,95047.73
2019-01-19T12:54:19.980Z,95055.40
2019-01-19T12:56:47.475Z,95043.64
2019-01-19T12:59:14.872Z,95047.30
2019-01-19T13:01:42.372Z,95047.30
2019-01-19T13:04:09.986Z,95043.47
2019-01-19T13:06:59.625Z,95032.23
2019-01-19T13:09:30.116Z,95032.23
2019-01-19T13:12:28.389Z,95031.63
2019-01-19T13:15:19.305Z,95028.70
2019-01-19T13:18:10.856Z,95031.10
2019-01-19T13:21:13.084Z,95023.36
2019-01-19T13:24:40.454Z,95015.77
2019-01-19T13:27:33.563Z,95012.08
2019-01-19T13:30:46.425Z,95016.99
2019-01-19T13:33:33.924Z,95006.59
2019-01-19T13:36:38.139Z,95017.93
2019-01-19T13:39:37.515Z,95015.66
2019-01-19T13:42:55.784Z,95019.48
2019-01-19T13:45:48.399Z,95018.30
2019-01-19T13:48:50.663Z,95015.32
2019-01-19T13:51:33.102Z,95013.91
2019-01-19T13:55:03.457Z,95016.40
2019-01-19T13:57:50.751Z,95009.98
2019-01-19T14:00:54.794Z,95013.29
2019-01-19T14:04:09.745Z,95015.98
2019-01-19T14:07:27.893Z,95016.55
2019-01-19T14:10:17.662Z,95018.69
2019-01-19T14:13:29.866Z,95009.02
2019-01-19T14:16:21.121Z,95007.94
2019-01-19T14:19:29.463Z,95008.75
2019-01-19T14:22:33.565Z,94998.81
2019-01-19T14:25:23.853Z,94998.81
2019-01-19T14:28:21.874Z,95001.70
2019-01-19T14:31:17.383Z,95002.28
2019-01-19T14:34:26.752Z,95002.28
2019-01-19T14:37:38.806Z,94992.44
2019-01-19T14:40:31.294Z,94992.44
2019-01-19T14:43:51.522Z,94994.77
2019-01-19T14:47:07.055Z,94989.70
2019-01-19T14:50:18.315Z,94991.63
2019-01-19T14:53:33.506Z,94978.81
2019-01-19T14:56:51.666Z,94979.68
2019-01-19T14:59:37.284Z,94980.52
2019-01-19T15:02:48.531Z,94979.74
2019-01-19T15:05:54.139Z,94976.14
2019-01-19T15:08:38.936Z,94980.44
2019-01-19T15:12:06.325Z,95020.36
2019-01-19T15:15:27.906Z,94970.89
2019-01-19T15:18:42.952Z,94970.23
2019-01-19T15:22:05.132Z,94974.84
2019-01-19T15:24:55.183Z,94973.17
2019-01-19T15:27:59.717Z,94970.97
2019-01-19T15:31:27.051Z,94966.42
2019-01-19T15:34:54.097Z,94971.47
2019-01-19T15:38:02.058Z,94977.24
2019-01-19T15:41:05.289Z,94977.24
2019-01-19T15:43:52.826Z,94971.59
2019-01-19T15:46:56.880Z,94967.63
2019-01-19T15:50:09.293Z,94965.27
2019-01-19T15:52:48.166Z,94965.27
2019-01-19T15:55:54.492Z,94969.84
2019-01-19T15:58:34.085Z,94973.45
2019-01-19T16:01:44.413Z,94970.53
2019-01-19T16:05:01.609Z,94967.23
2019-01-19T16:08:10.826Z,94967.23
2019-01-19T16:11:28.719Z,94971.30
2019-01-19T16:14:46.889Z,94971.30
2019-01-19T16:17:35.037Z,94967.70
2019-01-19T16:20:36.520Z,94978.09
2019-01-19T16:23:44.369Z,94978.60
2019-01-19T16:26:56.758Z,94978.60
2019-01-19T16:29:55.831Z,94975.23
2019-01-19T16:33:00.011Z,94971.52
2019-01-19T16:36:05.219Z,94973.20
2019-01-19T16:38:56.075Z,94981.84
2019-01-19T16:41:57.038Z,94976.84
2019-01-19T16:45:14.369Z,94976.93
2019-01-19T16:48:18.981Z,94979.86
2019-01-19T16:51:32.468Z,94971.70
2019-01-19T16:54:18.720Z,94981.61
2019-01-19T16:57:31.671Z,94979.77
2019-01-19T17:00:32.481Z,94979.77
2019-01-19T17:03:48.012Z,94973.73
2019-01-19T17:06:42.519Z,94974.72
2019-01-19T17:09:47.720Z,94976.38
2019-01-19T17:12:39.585Z,94972.41
2019-01-19T17:15:43.704Z,94972.41
2019-01-19T17:18:33.791Z,94980.05
2019-01-19T17:21:39.016Z,94974.57
2019-01-19T17:24:36.026Z,94978.00
2019-01-19T17:27:25.925Z,94982.22
2019-01-19T17:30:27.913Z,94983.42
2019-01-19T17:33:33.912Z,94991.08
2019-01-19T17:36:31.233Z,94991.84
2019-01-19T17:39:45.587Z,94988.91
2019-01-19T17:42:50.555Z,94988.91
2019-01-19T17:46:17.251Z,94992.34
2019-01-19T17:49:29.132Z,94992.34
2019-01-19T17:52:37.115Z,94999.31
2019-01-19T17:55:34.668Z,94995.10
2019-01-19T17:58:51.103Z,94990.41
2019-01-19T18:02:00.011Z,94992.83
2019-01-19T18:05:15.131Z,94998.44
2019-01-19T18:08:10.210Z,95007.59
2019-01-19T18:10:57.454Z,95007.59
2019-01-19T18:14:03.072Z,95002.27
2019-01-19T18:17:24.574Z,95011.25
2019-01-19T18:20:32.424Z,95007.11
2019-01-19T18:23:56.672Z,95011.69
2019-01-19T18:27:10.459Z,95011.03
2019-01-19T18:30:16.093Z,95010.31
2019-01-19T18:33:29.801Z,95010.75
2019-01-19T18:36:54.616Z,95008.19
2019-01-19T18:39:39.477Z,95008.61
2019-01-19T18:42:36.249Z,95012.42
2019-01-19T18:45:59.613Z,95010.40
2019-01-19T18:49:04.139Z,95004.16
2019-01-19T18:51:58.599Z,94995.79
2019-01-19T18:55:00.675Z,94995.79
2019-01-19T18:58:15.515Z,94996.56
2019-01-19T19:01:32.804Z,94999.03
2019-01-19T19:04:45.099Z,94996.19
2019-01-19T19:07:34.194Z,95002.13
2019-01-19T19:10:24.232Z,94994.60
2019-01-19T19:13:40.262Z,94995.79
2019-01-19T19:16:57.442Z,94996.47
2019-01-19T19:19:43.465Z,94995.47
2019-01-19T19:23:23.306Z,94996.95
2019-01-19T19:26:10.331Z,95005.73
2019-01-19T19:29:14.432Z,94998.06
2019-01-19T19:31:53.230Z,94994.44
2019-01-19T19:35:11.690Z,94997.39
2019-01-19T19:38:10.807Z,94998.64
2019-01-19T19:41:04.248Z,94997.45
2019-01-19T19:44:11.978Z,94992.28
2019-01-19T19:47:23.455Z,95000.70
2019-01-19T19:50:14.960Z,95005.03
2019-01-19T19:52:43.004Z,95005.10
2019-01-19T19:55:09.323Z,95011.06
2019-01-19T19:57:37.246Z,95008.08
2019-01-19T20:00:07.619Z,95010.53
2019-01-19T20:02:35.535Z,95009.30
2019-01-19T20:05:04.502Z,95010.01
2019-01-19T20:07:34.751Z,95015.31
2019-01-19T20:10:02.647Z,95016.55
2019-01-19T20:12:30.740Z,95016.37
2019-01-19T20:14:58.616Z,95017.14
2019-01-19T20:17:26.583Z,95020.62
2019-01-19T20:19:54.576Z,95011.45
2019-01-19T20:22:22.435Z,95013.77
2019-01-19T20:24:50.367Z,95024.75
2019-01-19T20:27:18.175Z,95018.72
2019-01-19T20:29:46.292Z,95018.72
2019-01-19T20:32:14.249Z,95015.42
2019-01-19T20:34:42.186Z,95020.60
2019-01-19T20:37:10.201Z,95016.31
2019-01-19T20:39:38.286Z,95018.09
2019-01-19T20:42:06.278Z,95022.15
2019-01-19T20:44:34.242Z,95022.22
2019-01-19T20:47:02.134Z,95018.30
2019-01-19T20:49:30.106Z,95023.83
2019-01-19T20:51:58.016Z,95027.45
2019-01-19T20:54:25.732Z,95032.20
2019-01-19T20:56:53.589Z,95031.13
2019-01-19T20:59:21.308Z,95031.13
2019-01-19T21:01:49.177Z,95024.92
2019-01-19T21:04:18.600Z,95024.92
2019-01-19T21:06:46.571Z,95028.61
2019-01-19T21:09:14.389Z,95025.22
2019-01-19T21:11:42.328Z,95028.17
2019-01-19T21:14:10.164Z,95030.98
2019-01-19T21:16:37.945Z,95029.33
2019-01-19T21:19:05.804Z,95033.23
2019-01-19T21:21:33.390Z,95029.36
2019-01-19T21:24:01.046Z,95031.41
2019-01-19T21:26:29.038Z,95030.41
2019-01-19T21:28:56.746Z,95030.49
2019-01-19T21:31:24.349Z,95036.71
2019-01-19T21:33:52.307Z,95037.41
2019-01-19T21:36:19.969Z,95033.23
2019-01-19T21:38:47.604Z,95029.77
2019-01-19T21:41:15.077Z,95040.30
2019-01-19T21:43:43.283Z,95038.80
2019-01-19T21:46:10.967Z,95037.16
2019-01-19T21:48:38.385Z,95045.73
2019-01-19T21:51:05.903Z,95044.44
2019-01-19T21:53:33.316Z,95044.86
2019-01-19T21:56:00.793Z,95050.90
2019-01-19T21:58:28.396Z,95046.87
2019-01-19T22:00:56.032Z,95054.91
2019-01-19T22:03:23.445Z,95050.28
2019-01-19T22:05:50.872Z,95052.08
2019-01-19T22:08:18.364Z,95057.09
2019-01-19T22:10:46.475Z,95057.61
2019-01-19T22:13:14.071Z,95062.75
2019-01-19T22:15:41.563Z,95066.73
2019-01-19T22:18:09.026Z,95071.65
2019-01-19T22:20:36.523Z,95062.33
2019-01-19T22:23:03.972Z,95065.78
2019-01-19T22:25:31.422Z,95070.41
2019-01-19T22:27:58.919Z,95068.18
2019-01-19T22:30:26.456Z,95068.95
2019-01-19T22:32:55.468Z,95067.27
2019-01-19T22:35:25.957Z,95070.59
2019-01-19T22:37:53.397Z,95065.27
2019-01-19T22:40:20.947Z,95067.05
2019-01-19T22:42:48.509Z,95059.91
2019-01-19T22:45:15.999Z,95062.37
2019-01-19T22:47:43.533Z,95068.84
2019-01-19T22:50:13.252Z,95064.16
2019-01-19T22:52:40.686Z,95065.41
2019-01-19T22:55:08.378Z,95066.91
2019-01-19T22:57:35.896Z,95066.09
2019-01-19T23:00:28.579Z,95071.44
2019-01-19T23:02:56.080Z,95070.17
2019-01-19T23:05:23.627Z,95069.00
2019-01-19T23:07:52.124Z,95071.82
2019-01-19T23:10:19.583Z,95066.02
2019-01-19T23:12:47.344Z,95067.78
2019-01-19T23:15:14.986Z,95069.19
2019-01-19T23:17:42.469Z,95076.39
2019-01-19T23:20:09.973Z,95074.59
2019-01-19T23:22:37.634Z,95075.63
2019-01-19T23:25:06.544Z,95075.15
2019-01-19T23:27:33.975Z,95066.52
2019-01-19T23:30:01.492Z,95062.96
2019-01-19T23:32:28.972Z,95064.25
2019-01-19T23:34:56.472Z,95058.55
2019-01-19T23:37:23.908Z,95058.77
2019-01-19T23:39:51.368Z,95060.61
2019-01-19T23:42:18.792Z,95057.59
2019-01-19T23:44:46.200Z,95052.00
2019-01-19T23:47:13.651Z,95049.33
2019-01-19T23:49:42.350Z,95048.19
2019-01-19T23:52:09.731Z,95043.92
2019-01-19T23:54:37.212Z,95050.50
2019-01-19T23:57:04.805Z,95047.72
2019-01-19T23:59:32.226Z,95048.48
